Capitol Logistics 231


KPHX
Phoenix Sky Harbor International Airport
Phoenix, Arizona, US
KRFD
Chicago/Rockford International Airport
Rockford, Illinois, US

Activity Log

Date Flight Route Aircraft Duration
06/21/2020 CPX231 BROAK1 MAXXO ACH J231 LBL J19 ICT J26 IRK J232 MZV PLL B763 3h 00m
01/07/2020 CPX231 SJN9 ABQ J18 SLN J96 IRK J26 BDF J105 VORIN B763 2h 52m
05/10/2019 CPX231 FTHLS5 ABQ FTI J18 MZV B763 2h 50m

Route Details

Aircraft Information
Primary: Boeing 767-300BDSF
Backup: Not Available
Route Data
Distance: 1204nm
Sched. Duration: 2h 41m
Avg. Duration: 2h 67m (+27m)
Times Flown: 3
Recm'd Route: BROAK1 MAXXO ACH J231 LBL J19 ICT J26 IRK J232 MZV PLL
Planned Altitude: 35,000ft
Origin Wx: KPHX 291951Z 09007KT 10SM FEW180 FEW250 27/M02 A3004 RMK AO2 SLP159 T02671017
Dest. Wx: KRFD 291954Z 36014G22KT 10SM OVC026 07/00 A2998 RMK AO2 SLP156 T00670000
Notes:

Financial History
Total Freight: 257,843lbs
Average Load: 85,948lbs/flt
Fuel Used: 92,175lbs
Avg. Fuel Used: 30,725lbs/flt
Fuel Expense: $74,662
Avg. Fuel Expense: $24,887
Avg. Fuel Cost: $0.81/lbs
Total Gross Income: $378,727
Pilot Pay: $487
Total Expenses: $41,059
Total Revenue: $261,229
Average Revenue: $126,242.41